sensor_id;sensor_type;location;lat;lon;timestamp;P1;durP1;ratioP1;P2;durP2;ratioP2
10851;SDS011;5479;52.046;6.314;2022-07-29T00:00:54;5.53;;;2.20;;
10851;SDS011;5479;52.046;6.314;2022-07-29T00:03:22;3.63;;;2.20;;
10851;SDS011;5479;52.046;6.314;2022-07-29T00:05:51;4.60;;;2.20;;
10851;SDS011;5479;52.046;6.314;2022-07-29T00:08:20;4.97;;;2.30;;
10851;SDS011;5479;52.046;6.314;2022-07-29T00:10:49;4.30;;;2.00;;
10851;SDS011;5479;52.046;6.314;2022-07-29T00:13:17;3.87;;;2.57;;
10851;SDS011;5479;52.046;6.314;2022-07-29T00:15:45;6.50;;;2.40;;
10851;SDS011;5479;52.046;6.314;2022-07-29T00:18:13;4.37;;;2.27;;
10851;SDS011;5479;52.046;6.314;2022-07-29T00:20:40;3.13;;;2.00;;
10851;SDS011;5479;52.046;6.314;2022-07-29T00:23:10;5.20;;;2.13;;
10851;SDS011;5479;52.046;6.314;2022-07-29T00:25:37;6.93;;;2.80;;
10851;SDS011;5479;52.046;6.314;2022-07-29T00:28:05;4.83;;;2.30;;
10851;SDS011;5479;52.046;6.314;2022-07-29T00:30:33;5.80;;;2.13;;
10851;SDS011;5479;52.046;6.314;2022-07-29T00:33:01;6.57;;;2.47;;
10851;SDS011;5479;52.046;6.314;2022-07-29T00:35:29;4.53;;;2.20;;
10851;SDS011;5479;52.046;6.314;2022-07-29T00:38:12;5.53;;;2.43;;
10851;SDS011;5479;52.046;6.314;2022-07-29T00:40:41;7.07;;;2.30;;
10851;SDS011;5479;52.046;6.314;2022-07-29T00:43:10;5.70;;;2.60;;
10851;SDS011;5479;52.046;6.314;2022-07-29T00:45:40;5.87;;;2.20;;
10851;SDS011;5479;52.046;6.314;2022-07-29T00:48:07;4.47;;;2.20;;
10851;SDS011;5479;52.046;6.314;2022-07-29T00:50:35;5.20;;;2.03;;
10851;SDS011;5479;52.046;6.314;2022-07-29T00:53:05;5.70;;;2.40;;
10851;SDS011;5479;52.046;6.314;2022-07-29T00:55:35;3.47;;;2.27;;
10851;SDS011;5479;52.046;6.314;2022-07-29T00:58:03;4.33;;;2.27;;
10851;SDS011;5479;52.046;6.314;2022-07-29T01:00:32;5.03;;;2.20;;
10851;SDS011;5479;52.046;6.314;2022-07-29T01:03:00;4.30;;;2.33;;
10851;SDS011;5479;52.046;6.314;2022-07-29T01:05:28;5.00;;;2.30;;
10851;SDS011;5479;52.046;6.314;2022-07-29T01:07:57;4.97;;;2.60;;
10851;SDS011;5479;52.046;6.314;2022-07-29T01:10:26;5.50;;;2.20;;
10851;SDS011;5479;52.046;6.314;2022-07-29T01:12:57;5.07;;;2.70;;
10851;SDS011;5479;52.046;6.314;2022-07-29T01:15:27;5.87;;;2.53;;
10851;SDS011;5479;52.046;6.314;2022-07-29T01:17:58;5.30;;;2.40;;
10851;SDS011;5479;52.046;6.314;2022-07-29T01:20:34;5.67;;;2.67;;
10851;SDS011;5479;52.046;6.314;2022-07-29T01:26:26;5.13;;;2.33;;
10851;SDS011;5479;52.046;6.314;2022-07-29T01:29:06;3.03;;;2.23;;
10851;SDS011;5479;52.046;6.314;2022-07-29T01:31:41;6.43;;;2.40;;
10851;SDS011;5479;52.046;6.314;2022-07-29T01:34:15;5.53;;;2.70;;
10851;SDS011;5479;52.046;6.314;2022-07-29T01:36:48;5.37;;;2.47;;
10851;SDS011;5479;52.046;6.314;2022-07-29T01:39:23;4.10;;;2.57;;
10851;SDS011;5479;52.046;6.314;2022-07-29T01:41:55;5.10;;;2.67;;
10851;SDS011;5479;52.046;6.314;2022-07-29T01:44:33;3.73;;;2.33;;
10851;SDS011;5479;52.046;6.314;2022-07-29T01:47:05;4.20;;;2.50;;
10851;SDS011;5479;52.046;6.314;2022-07-29T01:49:41;4.47;;;2.63;;
10851;SDS011;5479;52.046;6.314;2022-07-29T01:52:15;4.07;;;2.10;;
10851;SDS011;5479;52.046;6.314;2022-07-29T01:54:49;6.10;;;2.30;;
10851;SDS011;5479;52.046;6.314;2022-07-29T01:57:21;4.57;;;2.53;;
10851;SDS011;5479;52.046;6.314;2022-07-29T01:59:54;4.80;;;2.30;;
10851;SDS011;5479;52.046;6.314;2022-07-29T02:02:24;4.50;;;2.70;;
10851;SDS011;5479;52.046;6.314;2022-07-29T02:04:54;3.83;;;2.20;;
10851;SDS011;5479;52.046;6.314;2022-07-29T02:07:23;6.40;;;2.87;;
10851;SDS011;5479;52.046;6.314;2022-07-29T02:09:55;6.33;;;2.67;;
10851;SDS011;5479;52.046;6.314;2022-07-29T02:12:25;6.03;;;2.73;;
10851;SDS011;5479;52.046;6.314;2022-07-29T02:14:58;5.13;;;2.70;;
10851;SDS011;5479;52.046;6.314;2022-07-29T02:17:29;4.83;;;2.70;;
10851;SDS011;5479;52.046;6.314;2022-07-29T02:20:02;7.17;;;2.80;;
10851;SDS011;5479;52.046;6.314;2022-07-29T02:22:33;4.50;;;2.60;;
10851;SDS011;5479;52.046;6.314;2022-07-29T02:25:04;4.13;;;2.63;;
10851;SDS011;5479;52.046;6.314;2022-07-29T02:27:34;4.80;;;2.83;;
10851;SDS011;5479;52.046;6.314;2022-07-29T02:30:04;7.80;;;2.60;;
10851;SDS011;5479;52.046;6.314;2022-07-29T02:32:34;5.50;;;2.73;;
10851;SDS011;5479;52.046;6.314;2022-07-29T02:35:05;5.10;;;2.60;;
10851;SDS011;5479;52.046;6.314;2022-07-29T02:37:35;5.93;;;2.37;;
10851;SDS011;5479;52.046;6.314;2022-07-29T02:40:04;3.97;;;2.60;;
10851;SDS011;5479;52.046;6.314;2022-07-29T02:42:35;4.33;;;2.60;;
10851;SDS011;5479;52.046;6.314;2022-07-29T02:45:06;6.20;;;2.67;;
10851;SDS011;5479;52.046;6.314;2022-07-29T02:47:36;4.70;;;2.73;;
10851;SDS011;5479;52.046;6.314;2022-07-29T02:50:08;5.00;;;2.77;;
10851;SDS011;5479;52.046;6.314;2022-07-29T02:52:41;5.83;;;3.10;;
10851;SDS011;5479;52.046;6.314;2022-07-29T02:55:14;7.73;;;2.90;;
10851;SDS011;5479;52.046;6.314;2022-07-29T02:57:47;4.80;;;3.03;;
10851;SDS011;5479;52.046;6.314;2022-07-29T03:00:19;7.40;;;3.23;;
10851;SDS011;5479;52.046;6.314;2022-07-29T03:02:50;5.23;;;3.03;;
10851;SDS011;5479;52.046;6.314;2022-07-29T03:05:22;5.23;;;3.00;;
10851;SDS011;5479;52.046;6.314;2022-07-29T03:07:51;5.53;;;3.07;;
10851;SDS011;5479;52.046;6.314;2022-07-29T03:10:22;5.67;;;3.13;;
10851;SDS011;5479;52.046;6.314;2022-07-29T03:12:52;7.00;;;3.10;;
10851;SDS011;5479;52.046;6.314;2022-07-29T03:15:23;5.03;;;3.13;;
10851;SDS011;5479;52.046;6.314;2022-07-29T03:17:52;5.60;;;2.90;;
10851;SDS011;5479;52.046;6.314;2022-07-29T03:20:21;6.27;;;2.80;;
10851;SDS011;5479;52.046;6.314;2022-07-29T03:22:50;5.27;;;3.10;;
10851;SDS011;5479;52.046;6.314;2022-07-29T03:25:18;6.13;;;2.80;;
10851;SDS011;5479;52.046;6.314;2022-07-29T03:27:47;6.10;;;3.27;;
10851;SDS011;5479;52.046;6.314;2022-07-29T03:30:15;6.87;;;3.57;;
10851;SDS011;5479;52.046;6.314;2022-07-29T03:32:44;6.33;;;3.33;;
10851;SDS011;5479;52.046;6.314;2022-07-29T03:35:12;8.00;;;3.30;;
10851;SDS011;5479;52.046;6.314;2022-07-29T03:37:40;6.10;;;3.40;;
10851;SDS011;5479;52.046;6.314;2022-07-29T03:40:08;5.47;;;3.00;;
10851;SDS011;5479;52.046;6.314;2022-07-29T03:42:39;6.60;;;3.33;;
10851;SDS011;5479;52.046;6.314;2022-07-29T03:45:10;5.97;;;3.30;;
10851;SDS011;5479;52.046;6.314;2022-07-29T03:47:42;7.17;;;3.30;;
10851;SDS011;5479;52.046;6.314;2022-07-29T03:50:18;5.63;;;3.00;;
10851;SDS011;5479;52.046;6.314;2022-07-29T03:52:48;5.07;;;3.10;;
10851;SDS011;5479;52.046;6.314;2022-07-29T03:55:17;5.93;;;2.90;;
10851;SDS011;5479;52.046;6.314;2022-07-29T03:57:45;5.83;;;3.20;;
10851;SDS011;5479;52.046;6.314;2022-07-29T04:00:13;6.10;;;3.20;;
10851;SDS011;5479;52.046;6.314;2022-07-29T04:02:43;5.90;;;3.30;;
10851;SDS011;5479;52.046;6.314;2022-07-29T04:05:14;6.10;;;3.10;;
10851;SDS011;5479;52.046;6.314;2022-07-29T04:07:43;5.43;;;3.23;;
10851;SDS011;5479;52.046;6.314;2022-07-29T04:10:11;6.60;;;3.23;;
10851;SDS011;5479;52.046;6.314;2022-07-29T04:12:39;6.77;;;3.90;;
10851;SDS011;5479;52.046;6.314;2022-07-29T04:15:07;7.90;;;3.67;;
10851;SDS011;5479;52.046;6.314;2022-07-29T04:17:36;7.50;;;3.37;;
10851;SDS011;5479;52.046;6.314;2022-07-29T04:20:06;7.07;;;4.20;;
10851;SDS011;5479;52.046;6.314;2022-07-29T04:22:34;6.70;;;3.40;;
10851;SDS011;5479;52.046;6.314;2022-07-29T04:25:02;5.83;;;3.57;;
10851;SDS011;5479;52.046;6.314;2022-07-29T04:27:31;7.93;;;3.40;;
10851;SDS011;5479;52.046;6.314;2022-07-29T04:29:58;8.10;;;4.20;;
10851;SDS011;5479;52.046;6.314;2022-07-29T04:32:26;7.00;;;3.53;;
10851;SDS011;5479;52.046;6.314;2022-07-29T04:34:54;7.53;;;3.80;;
10851;SDS011;5479;52.046;6.314;2022-07-29T04:37:23;7.00;;;4.00;;
10851;SDS011;5479;52.046;6.314;2022-07-29T04:39:51;6.37;;;4.10;;
10851;SDS011;5479;52.046;6.314;2022-07-29T04:42:19;6.67;;;3.70;;
10851;SDS011;5479;52.046;6.314;2022-07-29T04:44:47;6.87;;;4.00;;
10851;SDS011;5479;52.046;6.314;2022-07-29T04:47:15;5.13;;;3.83;;
10851;SDS011;5479;52.046;6.314;2022-07-29T04:49:43;10.60;;;4.10;;
10851;SDS011;5479;52.046;6.314;2022-07-29T04:52:10;10.23;;;4.70;;
10851;SDS011;5479;52.046;6.314;2022-07-29T04:54:40;5.70;;;4.03;;
10851;SDS011;5479;52.046;6.314;2022-07-29T04:57:07;7.20;;;4.13;;
10851;SDS011;5479;52.046;6.314;2022-07-29T04:59:35;7.90;;;4.20;;
10851;SDS011;5479;52.046;6.314;2022-07-29T05:02:03;6.07;;;4.27;;
10851;SDS011;5479;52.046;6.314;2022-07-29T05:04:31;5.47;;;4.20;;
10851;SDS011;5479;52.046;6.314;2022-07-29T05:06:59;7.13;;;4.20;;
10851;SDS011;5479;52.046;6.314;2022-07-29T05:09:27;6.03;;;4.00;;
10851;SDS011;5479;52.046;6.314;2022-07-29T05:11:56;6.33;;;3.50;;
10851;SDS011;5479;52.046;6.314;2022-07-29T05:14:24;5.47;;;3.80;;
10851;SDS011;5479;52.046;6.314;2022-07-29T05:16:52;5.67;;;3.57;;
10851;SDS011;5479;52.046;6.314;2022-07-29T05:19:22;6.00;;;3.33;;
10851;SDS011;5479;52.046;6.314;2022-07-29T05:21:50;4.87;;;3.37;;
10851;SDS011;5479;52.046;6.314;2022-07-29T05:24:18;5.87;;;3.47;;
10851;SDS011;5479;52.046;6.314;2022-07-29T05:26:46;5.97;;;3.70;;
10851;SDS011;5479;52.046;6.314;2022-07-29T05:29:15;7.53;;;3.70;;
10851;SDS011;5479;52.046;6.314;2022-07-29T05:31:43;7.03;;;4.20;;
10851;SDS011;5479;52.046;6.314;2022-07-29T05:34:11;6.47;;;4.23;;
10851;SDS011;5479;52.046;6.314;2022-07-29T05:36:38;6.90;;;3.90;;
10851;SDS011;5479;52.046;6.314;2022-07-29T05:39:06;5.33;;;3.93;;
10851;SDS011;5479;52.046;6.314;2022-07-29T05:41:34;5.73;;;4.03;;
10851;SDS011;5479;52.046;6.314;2022-07-29T05:44:02;6.80;;;3.80;;
10851;SDS011;5479;52.046;6.314;2022-07-29T05:46:31;7.17;;;3.50;;
10851;SDS011;5479;52.046;6.314;2022-07-29T05:48:59;5.80;;;3.50;;
10851;SDS011;5479;52.046;6.314;2022-07-29T05:51:28;5.97;;;3.73;;
10851;SDS011;5479;52.046;6.314;2022-07-29T05:53:57;6.40;;;3.67;;
10851;SDS011;5479;52.046;6.314;2022-07-29T05:56:25;4.90;;;3.43;;
10851;SDS011;5479;52.046;6.314;2022-07-29T05:58:53;6.33;;;3.57;;
10851;SDS011;5479;52.046;6.314;2022-07-29T06:01:21;6.83;;;3.60;;
10851;SDS011;5479;52.046;6.314;2022-07-29T06:03:50;6.80;;;4.10;;
10851;SDS011;5479;52.046;6.314;2022-07-29T06:06:18;10.47;;;3.77;;
10851;SDS011;5479;52.046;6.314;2022-07-29T06:08:46;6.97;;;4.27;;
10851;SDS011;5479;52.046;6.314;2022-07-29T06:11:14;6.13;;;3.80;;
10851;SDS011;5479;52.046;6.314;2022-07-29T06:13:42;6.83;;;4.00;;
10851;SDS011;5479;52.046;6.314;2022-07-29T06:16:10;8.23;;;4.70;;
10851;SDS011;5479;52.046;6.314;2022-07-29T06:18:38;6.47;;;3.50;;
10851;SDS011;5479;52.046;6.314;2022-07-29T06:21:08;8.13;;;3.97;;
10851;SDS011;5479;52.046;6.314;2022-07-29T06:23:37;6.33;;;4.03;;
10851;SDS011;5479;52.046;6.314;2022-07-29T06:26:05;6.87;;;3.90;;
10851;SDS011;5479;52.046;6.314;2022-07-29T06:28:33;8.80;;;4.03;;
10851;SDS011;5479;52.046;6.314;2022-07-29T06:31:01;7.00;;;3.77;;
10851;SDS011;5479;52.046;6.314;2022-07-29T06:33:28;5.53;;;3.50;;
10851;SDS011;5479;52.046;6.314;2022-07-29T06:35:56;5.67;;;3.27;;
10851;SDS011;5479;52.046;6.314;2022-07-29T06:38:26;8.33;;;3.90;;
10851;SDS011;5479;52.046;6.314;2022-07-29T06:40:53;6.43;;;3.57;;
10851;SDS011;5479;52.046;6.314;2022-07-29T06:43:27;7.70;;;3.90;;
10851;SDS011;5479;52.046;6.314;2022-07-29T06:45:58;7.77;;;3.80;;
10851;SDS011;5479;52.046;6.314;2022-07-29T06:48:27;5.57;;;3.90;;
10851;SDS011;5479;52.046;6.314;2022-07-29T06:50:56;7.20;;;4.30;;
10851;SDS011;5479;52.046;6.314;2022-07-29T06:53:25;6.17;;;3.67;;
10851;SDS011;5479;52.046;6.314;2022-07-29T06:55:53;7.67;;;3.80;;
10851;SDS011;5479;52.046;6.314;2022-07-29T06:58:21;7.50;;;3.83;;
10851;SDS011;5479;52.046;6.314;2022-07-29T07:00:49;6.20;;;3.90;;
10851;SDS011;5479;52.046;6.314;2022-07-29T07:03:17;6.27;;;3.50;;
10851;SDS011;5479;52.046;6.314;2022-07-29T07:05:46;6.40;;;3.60;;
10851;SDS011;5479;52.046;6.314;2022-07-29T07:08:14;8.57;;;3.80;;
10851;SDS011;5479;52.046;6.314;2022-07-29T07:10:44;7.27;;;3.87;;
10851;SDS011;5479;52.046;6.314;2022-07-29T07:13:12;6.67;;;3.53;;
10851;SDS011;5479;52.046;6.314;2022-07-29T07:15:40;6.13;;;3.47;;
10851;SDS011;5479;52.046;6.314;2022-07-29T07:18:08;6.97;;;3.50;;
10851;SDS011;5479;52.046;6.314;2022-07-29T07:20:36;5.73;;;3.40;;
10851;SDS011;5479;52.046;6.314;2022-07-29T07:23:04;5.90;;;3.57;;
10851;SDS011;5479;52.046;6.314;2022-07-29T07:25:32;7.33;;;3.67;;
10851;SDS011;5479;52.046;6.314;2022-07-29T07:28:01;6.17;;;3.70;;
10851;SDS011;5479;52.046;6.314;2022-07-29T07:30:29;7.83;;;3.43;;
10851;SDS011;5479;52.046;6.314;2022-07-29T07:32:57;5.53;;;3.40;;
10851;SDS011;5479;52.046;6.314;2022-07-29T07:35:26;6.23;;;3.60;;
10851;SDS011;5479;52.046;6.314;2022-07-29T07:37:54;8.30;;;3.50;;
10851;SDS011;5479;52.046;6.314;2022-07-29T07:40:23;9.20;;;3.47;;
10851;SDS011;5479;52.046;6.314;2022-07-29T07:42:51;6.90;;;3.57;;
10851;SDS011;5479;52.046;6.314;2022-07-29T07:45:20;6.70;;;3.57;;
10851;SDS011;5479;52.046;6.314;2022-07-29T07:47:48;5.73;;;3.70;;
10851;SDS011;5479;52.046;6.314;2022-07-29T07:50:16;6.10;;;3.77;;
10851;SDS011;5479;52.046;6.314;2022-07-29T07:52:48;9.17;;;3.70;;
10851;SDS011;5479;52.046;6.314;2022-07-29T07:55:17;6.53;;;4.07;;
10851;SDS011;5479;52.046;6.314;2022-07-29T07:57:45;5.83;;;3.40;;
10851;SDS011;5479;52.046;6.314;2022-07-29T08:00:14;8.27;;;4.00;;
10851;SDS011;5479;52.046;6.314;2022-07-29T08:02:44;8.77;;;3.77;;
10851;SDS011;5479;52.046;6.314;2022-07-29T08:05:12;6.63;;;3.83;;
10851;SDS011;5479;52.046;6.314;2022-07-29T08:07:43;6.00;;;3.93;;
10851;SDS011;5479;52.046;6.314;2022-07-29T08:10:12;5.80;;;3.60;;
10851;SDS011;5479;52.046;6.314;2022-07-29T08:12:41;5.50;;;3.53;;
10851;SDS011;5479;52.046;6.314;2022-07-29T08:15:09;6.87;;;3.63;;
10851;SDS011;5479;52.046;6.314;2022-07-29T08:17:37;6.73;;;3.67;;
10851;SDS011;5479;52.046;6.314;2022-07-29T08:20:06;8.73;;;4.00;;
10851;SDS011;5479;52.046;6.314;2022-07-29T08:22:35;6.20;;;3.80;;
10851;SDS011;5479;52.046;6.314;2022-07-29T08:25:03;6.43;;;3.80;;
10851;SDS011;5479;52.046;6.314;2022-07-29T08:27:31;9.03;;;3.93;;
10851;SDS011;5479;52.046;6.314;2022-07-29T08:29:59;6.97;;;3.80;;
10851;SDS011;5479;52.046;6.314;2022-07-29T08:32:27;7.67;;;3.83;;
10851;SDS011;5479;52.046;6.314;2022-07-29T08:34:55;7.20;;;3.97;;
10851;SDS011;5479;52.046;6.314;2022-07-29T08:37:24;6.57;;;3.57;;
10851;SDS011;5479;52.046;6.314;2022-07-29T08:39:52;7.13;;;3.80;;
10851;SDS011;5479;52.046;6.314;2022-07-29T08:42:20;7.13;;;3.60;;
10851;SDS011;5479;52.046;6.314;2022-07-29T08:44:48;6.20;;;3.90;;
10851;SDS011;5479;52.046;6.314;2022-07-29T08:47:18;7.03;;;3.60;;
10851;SDS011;5479;52.046;6.314;2022-07-29T08:49:46;5.30;;;4.00;;
10851;SDS011;5479;52.046;6.314;2022-07-29T08:52:14;7.13;;;4.10;;
10851;SDS011;5479;52.046;6.314;2022-07-29T08:54:45;6.20;;;4.07;;
10851;SDS011;5479;52.046;6.314;2022-07-29T08:57:14;7.23;;;4.03;;
10851;SDS011;5479;52.046;6.314;2022-07-29T08:59:43;9.17;;;4.30;;
10851;SDS011;5479;52.046;6.314;2022-07-29T09:02:16;6.47;;;4.03;;
10851;SDS011;5479;52.046;6.314;2022-07-29T09:04:47;5.40;;;3.90;;
10851;SDS011;5479;52.046;6.314;2022-07-29T09:07:17;7.70;;;4.13;;
10851;SDS011;5479;52.046;6.314;2022-07-29T09:09:47;5.83;;;4.00;;
10851;SDS011;5479;52.046;6.314;2022-07-29T09:12:15;7.27;;;4.33;;
10851;SDS011;5479;52.046;6.314;2022-07-29T09:14:43;8.00;;;4.13;;
10851;SDS011;5479;52.046;6.314;2022-07-29T09:17:10;6.23;;;3.77;;
10851;SDS011;5479;52.046;6.314;2022-07-29T09:19:38;7.00;;;4.40;;
10851;SDS011;5479;52.046;6.314;2022-07-29T09:22:06;7.27;;;4.03;;
10851;SDS011;5479;52.046;6.314;2022-07-29T09:24:37;6.20;;;3.90;;
10851;SDS011;5479;52.046;6.314;2022-07-29T09:27:18;6.77;;;4.13;;
10851;SDS011;5479;52.046;6.314;2022-07-29T09:29:55;5.73;;;4.00;;
10851;SDS011;5479;52.046;6.314;2022-07-29T09:32:24;7.13;;;4.37;;
10851;SDS011;5479;52.046;6.314;2022-07-29T09:37:46;7.87;;;4.00;;
10851;SDS011;5479;52.046;6.314;2022-07-29T09:40:16;7.53;;;4.60;;
10851;SDS011;5479;52.046;6.314;2022-07-29T09:42:46;10.97;;;4.27;;
10851;SDS011;5479;52.046;6.314;2022-07-29T09:45:25;7.83;;;4.10;;
10851;SDS011;5479;52.046;6.314;2022-07-29T09:47:55;8.37;;;4.20;;
10851;SDS011;5479;52.046;6.314;2022-07-29T09:50:34;8.47;;;4.73;;
10851;SDS011;5479;52.046;6.314;2022-07-29T09:53:02;10.67;;;4.83;;
10851;SDS011;5479;52.046;6.314;2022-07-29T09:55:30;8.80;;;4.60;;
10851;SDS011;5479;52.046;6.314;2022-07-29T09:58:19;8.47;;;4.50;;
10851;SDS011;5479;52.046;6.314;2022-07-29T10:00:50;9.63;;;4.73;;
10851;SDS011;5479;52.046;6.314;2022-07-29T10:03:18;9.43;;;4.57;;
10851;SDS011;5479;52.046;6.314;2022-07-29T10:06:05;8.33;;;4.90;;
10851;SDS011;5479;52.046;6.314;2022-07-29T10:08:33;7.80;;;4.60;;
10851;SDS011;5479;52.046;6.314;2022-07-29T10:11:09;6.13;;;4.53;;
10851;SDS011;5479;52.046;6.314;2022-07-29T10:13:39;9.27;;;4.80;;
10851;SDS011;5479;52.046;6.314;2022-07-29T10:16:08;6.40;;;4.40;;
10851;SDS011;5479;52.046;6.314;2022-07-29T10:18:37;6.53;;;4.00;;
10851;SDS011;5479;52.046;6.314;2022-07-29T10:21:06;7.40;;;4.25;;
10851;SDS011;5479;52.046;6.314;2022-07-29T10:23:34;8.27;;;4.03;;
10851;SDS011;5479;52.046;6.314;2022-07-29T10:26:02;7.32;;;4.30;;
10851;SDS011;5479;52.046;6.314;2022-07-29T10:28:30;8.10;;;4.25;;
10851;SDS011;5479;52.046;6.314;2022-07-29T10:31:01;7.35;;;4.30;;
10851;SDS011;5479;52.046;6.314;2022-07-29T10:33:39;7.13;;;4.43;;
10851;SDS011;5479;52.046;6.314;2022-07-29T10:36:21;8.50;;;4.03;;
10851;SDS011;5479;52.046;6.314;2022-07-29T10:39:00;6.97;;;3.80;;
10851;SDS011;5479;52.046;6.314;2022-07-29T10:41:52;6.35;;;4.03;;
10851;SDS011;5479;52.046;6.314;2022-07-29T10:44:29;5.43;;;3.50;;
10851;SDS011;5479;52.046;6.314;2022-07-29T10:46:59;6.20;;;3.95;;
10851;SDS011;5479;52.046;6.314;2022-07-29T10:49:27;8.13;;;4.00;;
10851;SDS011;5479;52.046;6.314;2022-07-29T10:51:59;8.45;;;3.30;;
10851;SDS011;5479;52.046;6.314;2022-07-29T10:54:39;7.60;;;4.18;;
10851;SDS011;5479;52.046;6.314;2022-07-29T10:57:19;6.00;;;4.10;;
10851;SDS011;5479;52.046;6.314;2022-07-29T11:00:25;6.82;;;3.90;;
10851;SDS011;5479;52.046;6.314;2022-07-29T11:03:00;7.32;;;3.80;;
10851;SDS011;5479;52.046;6.314;2022-07-29T11:05:28;4.88;;;3.15;;
10851;SDS011;5479;52.046;6.314;2022-07-29T11:08:16;5.93;;;2.80;;
10851;SDS011;5479;52.046;6.314;2022-07-29T11:10:48;6.88;;;3.83;;
10851;SDS011;5479;52.046;6.314;2022-07-29T11:16:14;6.65;;;3.45;;
10851;SDS011;5479;52.046;6.314;2022-07-29T11:21:48;6.97;;;3.30;;
10851;SDS011;5479;52.046;6.314;2022-07-29T11:24:18;6.07;;;3.30;;
10851;SDS011;5479;52.046;6.314;2022-07-29T11:27:08;6.32;;;3.25;;
10851;SDS011;5479;52.046;6.314;2022-07-29T11:29:48;5.15;;;3.50;;
10851;SDS011;5479;52.046;6.314;2022-07-29T11:32:19;9.25;;;3.50;;
10851;SDS011;5479;52.046;6.314;2022-07-29T11:34:49;6.85;;;3.42;;
10851;SDS011;5479;52.046;6.314;2022-07-29T11:37:37;7.65;;;3.55;;
10851;SDS011;5479;52.046;6.314;2022-07-29T11:40:15;5.88;;;3.00;;
10851;SDS011;5479;52.046;6.314;2022-07-29T11:42:46;9.63;;;3.50;;
10851;SDS011;5479;52.046;6.314;2022-07-29T11:45:15;9.05;;;3.70;;
10851;SDS011;5479;52.046;6.314;2022-07-29T11:47:51;5.90;;;3.45;;
10851;SDS011;5479;52.046;6.314;2022-07-29T11:50:29;7.90;;;3.45;;
10851;SDS011;5479;52.046;6.314;2022-07-29T11:52:59;5.80;;;3.50;;
10851;SDS011;5479;52.046;6.314;2022-07-29T11:55:28;8.77;;;3.50;;
10851;SDS011;5479;52.046;6.314;2022-07-29T11:57:58;7.43;;;3.30;;
10851;SDS011;5479;52.046;6.314;2022-07-29T12:00:28;8.52;;;3.97;;
10851;SDS011;5479;52.046;6.314;2022-07-29T12:02:59;7.70;;;3.38;;
10851;SDS011;5479;52.046;6.314;2022-07-29T12:05:31;6.53;;;3.15;;
10851;SDS011;5479;52.046;6.314;2022-07-29T12:08:07;6.85;;;3.63;;
10851;SDS011;5479;52.046;6.314;2022-07-29T12:10:36;6.93;;;3.10;;
10851;SDS011;5479;52.046;6.314;2022-07-29T12:13:04;10.00;;;3.78;;
10851;SDS011;5479;52.046;6.314;2022-07-29T12:15:32;7.28;;;2.83;;
10851;SDS011;5479;52.046;6.314;2022-07-29T12:18:12;6.78;;;3.13;;
10851;SDS011;5479;52.046;6.314;2022-07-29T12:20:41;4.65;;;2.90;;
10851;SDS011;5479;52.046;6.314;2022-07-29T12:23:09;4.88;;;2.70;;
10851;SDS011;5479;52.046;6.314;2022-07-29T12:25:39;7.32;;;3.00;;
10851;SDS011;5479;52.046;6.314;2022-07-29T12:28:11;5.57;;;2.80;;
10851;SDS011;5479;52.046;6.314;2022-07-29T12:30:43;7.75;;;3.10;;
10851;SDS011;5479;52.046;6.314;2022-07-29T12:33:14;6.88;;;3.10;;
10851;SDS011;5479;52.046;6.314;2022-07-29T12:35:46;6.60;;;2.90;;
10851;SDS011;5479;52.046;6.314;2022-07-29T12:38:16;5.85;;;2.90;;
10851;SDS011;5479;52.046;6.314;2022-07-29T12:40:44;7.07;;;3.70;;
10851;SDS011;5479;52.046;6.314;2022-07-29T12:43:14;8.02;;;2.80;;
10851;SDS011;5479;52.046;6.314;2022-07-29T12:45:44;7.20;;;3.15;;
10851;SDS011;5479;52.046;6.314;2022-07-29T12:48:15;5.45;;;2.80;;
10851;SDS011;5479;52.046;6.314;2022-07-29T12:50:54;5.53;;;2.78;;
10851;SDS011;5479;52.046;6.314;2022-07-29T12:53:24;8.13;;;3.35;;
10851;SDS011;5479;52.046;6.314;2022-07-29T12:55:53;6.22;;;2.60;;
10851;SDS011;5479;52.046;6.314;2022-07-29T12:58:29;10.38;;;3.58;;
10851;SDS011;5479;52.046;6.314;2022-07-29T13:01:02;5.47;;;2.80;;
10851;SDS011;5479;52.046;6.314;2022-07-29T13:03:43;7.47;;;3.08;;
10851;SDS011;5479;52.046;6.314;2022-07-29T13:06:35;6.05;;;2.50;;
10851;SDS011;5479;52.046;6.314;2022-07-29T13:09:06;6.05;;;2.70;;
10851;SDS011;5479;52.046;6.314;2022-07-29T13:11:36;4.88;;;2.42;;
10851;SDS011;5479;52.046;6.314;2022-07-29T13:14:06;5.57;;;2.72;;
10851;SDS011;5479;52.046;6.314;2022-07-29T13:16:36;7.47;;;2.80;;
10851;SDS011;5479;52.046;6.314;2022-07-29T13:19:10;7.05;;;3.30;;
10851;SDS011;5479;52.046;6.314;2022-07-29T13:21:38;6.03;;;2.40;;
10851;SDS011;5479;52.046;6.314;2022-07-29T13:24:06;7.28;;;2.80;;
10851;SDS011;5479;52.046;6.314;2022-07-29T13:26:36;7.57;;;3.10;;
10851;SDS011;5479;52.046;6.314;2022-07-29T13:29:07;8.48;;;2.92;;
10851;SDS011;5479;52.046;6.314;2022-07-29T13:31:36;5.97;;;2.65;;
10851;SDS011;5479;52.046;6.314;2022-07-29T13:34:03;7.63;;;2.58;;
10851;SDS011;5479;52.046;6.314;2022-07-29T13:36:33;8.23;;;3.10;;
10851;SDS011;5479;52.046;6.314;2022-07-29T13:39:01;5.85;;;2.45;;
10851;SDS011;5479;52.046;6.314;2022-07-29T13:41:29;7.47;;;2.88;;
10851;SDS011;5479;52.046;6.314;2022-07-29T13:43:57;7.22;;;2.97;;
10851;SDS011;5479;52.046;6.314;2022-07-29T13:46:25;7.13;;;3.20;;
10851;SDS011;5479;52.046;6.314;2022-07-29T13:48:53;4.82;;;3.03;;
10851;SDS011;5479;52.046;6.314;2022-07-29T13:51:21;7.95;;;2.80;;
10851;SDS011;5479;52.046;6.314;2022-07-29T13:53:50;5.03;;;2.80;;
10851;SDS011;5479;52.046;6.314;2022-07-29T13:56:18;8.05;;;2.92;;
10851;SDS011;5479;52.046;6.314;2022-07-29T13:58:45;5.78;;;2.67;;
10851;SDS011;5479;52.046;6.314;2022-07-29T14:01:13;6.43;;;3.00;;
10851;SDS011;5479;52.046;6.314;2022-07-29T14:03:41;6.70;;;2.83;;
10851;SDS011;5479;52.046;6.314;2022-07-29T14:06:09;5.10;;;2.47;;
10851;SDS011;5479;52.046;6.314;2022-07-29T14:08:37;6.07;;;2.78;;
10851;SDS011;5479;52.046;6.314;2022-07-29T14:11:06;6.70;;;2.70;;
10851;SDS011;5479;52.046;6.314;2022-07-29T14:13:34;7.47;;;2.92;;
10851;SDS011;5479;52.046;6.314;2022-07-29T14:16:05;4.80;;;2.70;;
10851;SDS011;5479;52.046;6.314;2022-07-29T14:18:33;6.53;;;2.85;;
10851;SDS011;5479;52.046;6.314;2022-07-29T14:21:01;6.85;;;2.60;;
10851;SDS011;5479;52.046;6.314;2022-07-29T14:23:29;5.05;;;2.65;;
10851;SDS011;5479;52.046;6.314;2022-07-29T14:25:57;10.93;;;3.53;;
10851;SDS011;5479;52.046;6.314;2022-07-29T14:28:27;8.45;;;2.78;;
10851;SDS011;5479;52.046;6.314;2022-07-29T14:30:55;8.75;;;3.17;;
10851;SDS011;5479;52.046;6.314;2022-07-29T14:33:23;6.90;;;2.85;;
10851;SDS011;5479;52.046;6.314;2022-07-29T14:35:51;6.00;;;2.85;;
10851;SDS011;5479;52.046;6.314;2022-07-29T14:38:19;5.63;;;2.95;;
10851;SDS011;5479;52.046;6.314;2022-07-29T14:40:47;5.30;;;2.83;;
10851;SDS011;5479;52.046;6.314;2022-07-29T14:43:15;6.07;;;2.78;;
10851;SDS011;5479;52.046;6.314;2022-07-29T14:45:44;6.72;;;2.72;;
10851;SDS011;5479;52.046;6.314;2022-07-29T14:48:12;8.27;;;3.10;;
10851;SDS011;5479;52.046;6.314;2022-07-29T14:50:40;6.47;;;3.40;;
10851;SDS011;5479;52.046;6.314;2022-07-29T14:53:08;7.53;;;3.50;;
10851;SDS011;5479;52.046;6.314;2022-07-29T14:55:36;6.47;;;3.25;;
10851;SDS011;5479;52.046;6.314;2022-07-29T14:58:03;7.05;;;3.92;;
10851;SDS011;5479;52.046;6.314;2022-07-29T15:00:31;5.57;;;3.20;;
10851;SDS011;5479;52.046;6.314;2022-07-29T15:03:01;6.72;;;2.75;;
10851;SDS011;5479;52.046;6.314;2022-07-29T15:05:29;10.05;;;3.55;;
10851;SDS011;5479;52.046;6.314;2022-07-29T15:07:57;6.70;;;3.40;;
10851;SDS011;5479;52.046;6.314;2022-07-29T15:10:26;6.13;;;3.40;;
10851;SDS011;5479;52.046;6.314;2022-07-29T15:12:55;8.90;;;3.10;;
10851;SDS011;5479;52.046;6.314;2022-07-29T15:15:23;7.05;;;3.35;;
10851;SDS011;5479;52.046;6.314;2022-07-29T15:17:53;5.65;;;3.03;;
10851;SDS011;5479;52.046;6.314;2022-07-29T15:20:22;5.93;;;2.88;;
10851;SDS011;5479;52.046;6.314;2022-07-29T15:22:53;6.80;;;3.10;;
10851;SDS011;5479;52.046;6.314;2022-07-29T15:25:22;6.57;;;2.88;;
10851;SDS011;5479;52.046;6.314;2022-07-29T15:27:49;6.15;;;2.80;;
10851;SDS011;5479;52.046;6.314;2022-07-29T15:30:17;6.95;;;3.17;;